Time;durP1;ratioP1;P1;durP2;ratioP2;P2;SDS_P1;SDS_P2;PMS_P1;PMS_P2;Temp;Humidity;BMP_temperature;BMP_pressure;BME280_temperature;BME280_humidity;BME280_pressure;Samples;Min_cycle;Max_cycle;Signal;HPM_P1;HPM_P2
2022/09/28 00:00:19;;;;;;;;;;;9.00;99.90;;;;;;5049278;28;19951;-74
2022/09/28 00:02:46;;;;;;;;;;;9.00;99.90;;;;;;5048749;28;20370;-74
2022/09/28 00:05:12;;;;;;;;;;;9.00;99.90;;;;;;5047958;28;20271;-75
2022/09/28 00:07:40;;;;;;;;;;;9.10;99.90;;;;;;5051897;28;19929;-75
2022/09/28 00:10:09;;;;;;;;;;;9.10;99.90;;;;;;5048254;28;19940;-75
2022/09/28 00:12:35;;;;;;;;;;;9.10;99.90;;;;;;5047778;28;19982;-75
2022/09/28 00:15:02;;;;;;;;;;;9.10;99.90;;;;;;5048698;28;19932;-75
2022/09/28 00:17:29;;;;;;;;;;;;;;;;;;5047809;28;20270;-75
2022/09/28 00:19:56;;;;;;;;;;;9.10;99.90;;;;;;5054101;28;19928;-75
2022/09/28 00:22:23;;;;;;;;;;;9.10;99.90;;;;;;5050857;28;20777;-74
2022/09/28 00:24:50;;;;;;;;;;;9.10;99.90;;;;;;5047517;28;19947;-74
2022/09/28 00:27:18;;;;;;;;;;;9.10;99.90;;;;;;5047641;28;20410;-75
2022/09/28 00:29:44;;;;;;;;;;;9.10;99.90;;;;;;5046725;28;19925;-76
2022/09/28 00:32:12;;;;;;;;;;;9.10;99.90;;;;;;5045878;28;19939;-77
2022/09/28 00:34:41;;;;;;;;;;;9.10;99.90;;;;;;5046165;28;19929;-75
2022/09/28 00:37:08;;;;;;;;;;;9.10;99.90;;;;;;5055291;28;20568;-75
2022/09/28 00:39:37;;;;;;;;;;;9.00;99.90;;;;;;5047709;28;20031;-75
2022/09/28 00:42:04;;;;;;;;;;;9.00;99.90;;;;;;5047748;28;20328;-75
2022/09/28 00:44:40;;;;;;;;;;;9.00;99.90;;;;;;5066295;28;19929;-75
2022/09/28 00:47:09;;;;;;;;;;;8.90;99.90;;;;;;5066180;28;19974;-76
2022/09/28 00:49:39;;;;;;;;;;;8.80;99.90;;;;;;5067457;28;20013;-74
2022/09/28 00:52:07;;;;;;;;;;;8.90;99.90;;;;;;5058117;28;19952;-75
2022/09/28 00:54:35;;;;;;;;;;;8.90;99.90;;;;;;5045726;28;19928;-75
2022/09/28 00:57:03;;;;;;;;;;;8.80;99.90;;;;;;5045526;28;20061;-74
2022/09/28 00:59:30;;;;;;;;;;;8.80;99.90;;;;;;5047309;28;19933;-75
2022/09/28 01:01:58;;;;;;;;;;;8.80;99.90;;;;;;5046297;28;19925;-74
2022/09/28 01:04:24;;;;;;;;;;;8.70;99.90;;;;;;5046588;28;19933;-75
2022/09/28 01:06:52;;;;;;;;;;;8.60;99.90;;;;;;5045545;28;20408;-74
2022/09/28 01:09:19;;;;;;;;;;;8.50;99.90;;;;;;5043344;28;19929;-74
2022/09/28 01:11:46;;;;;;;;;;;8.40;99.90;;;;;;5046464;28;19929;-75
2022/09/28 01:14:13;;;;;;;;;;;8.40;99.90;;;;;;5048428;28;19968;-75
2022/09/28 01:16:42;;;;;;;;;;;8.40;99.90;;;;;;5046249;28;19978;-75
2022/09/28 01:19:33;;;;;;;;;;;8.40;99.90;;;;;;5046040;28;19929;-74
2022/09/28 01:22:08;;;;;;;;;;;8.30;99.90;;;;;;5049265;28;19979;-75
2022/09/28 01:24:39;;;;;;;;;;;8.40;99.90;;;;;;5035585;28;20410;-74
2022/09/28 01:27:12;;;;;;;;;;;8.30;99.90;;;;;;5027902;28;19929;-75
2022/09/28 01:29:44;;;;;;;;;;;8.40;99.90;;;;;;5043402;28;20279;-77
2022/09/28 01:32:21;;;;;;;;;;;8.40;99.90;;;;;;5046421;28;19929;-76
2022/09/28 01:34:54;;;;;;;;;;;8.40;99.90;;;;;;5044638;28;19929;-76
2022/09/28 01:37:21;;;;;;;;;;;8.50;99.90;;;;;;5045387;28;20398;-74
2022/09/28 01:39:49;;;;;;;;;;;8.50;99.90;;;;;;5046633;28;19928;-76
2022/09/28 01:42:20;;;;;;;;;;;8.60;99.90;;;;;;5044629;28;20313;-77
2022/09/28 01:44:49;;;;;;;;;;;8.60;99.90;;;;;;5045499;28;20055;-75
2022/09/28 01:47:19;;;;;;;;;;;8.70;99.90;;;;;;5047336;28;19928;-74
2022/09/28 01:49:48;;;;;;;;;;;8.80;99.90;;;;;;5053088;28;19935;-76
2022/09/28 01:52:17;;;;;;;;;;;8.80;99.90;;;;;;5045683;28;20080;-75
2022/09/28 01:54:45;;;;;;;;;;;8.80;99.90;;;;;;5044922;28;19928;-77
2022/09/28 01:57:15;;;;;;;;;;;8.90;99.90;;;;;;5047393;28;19986;-75
2022/09/28 01:59:45;;;;;;;;;;;8.90;99.90;;;;;;5046629;28;19924;-75
2022/09/28 02:02:14;;;;;;;;;;;8.90;99.90;;;;;;5046473;28;19931;-77
2022/09/28 02:04:42;;;;;;;;;;;8.90;99.90;;;;;;5045439;28;20535;-75
2022/09/28 02:07:12;;;;;;;;;;;9.00;99.90;;;;;;5045331;28;20023;-77
2022/09/28 02:09:42;;;;;;;;;;;9.00;99.90;;;;;;5047670;28;19929;-76
2022/09/28 02:12:11;;;;;;;;;;;8.90;99.90;;;;;;5055694;28;20378;-75
2022/09/28 02:14:40;;;;;;;;;;;8.90;99.90;;;;;;5050021;28;19932;-76
2022/09/28 02:17:09;;;;;;;;;;;8.90;99.90;;;;;;5049492;28;19932;-76
2022/09/28 02:19:36;;;;;;;;;;;8.90;99.90;;;;;;5049000;28;19944;-78
2022/09/28 02:22:07;;;;;;;;;;;8.80;99.90;;;;;;5048168;28;19952;-75
2022/09/28 02:24:37;;;;;;;;;;;8.80;99.90;;;;;;5041408;28;19925;-76
2022/09/28 02:27:12;;;;;;;;;;;8.80;99.90;;;;;;5048996;28;19929;-76
2022/09/28 02:29:38;;;;;;;;;;;8.80;99.90;;;;;;5049926;28;19932;-77
2022/09/28 02:32:05;;;;;;;;;;;8.80;99.90;;;;;;5048498;28;20024;-76
2022/09/28 02:34:35;;;;;;;;;;;8.80;99.90;;;;;;5054106;28;19967;-76
2022/09/28 02:37:01;;;;;;;;;;;8.80;99.90;;;;;;5051667;28;19936;-75
2022/09/28 02:39:29;;;;;;;;;;;8.80;99.90;;;;;;5048580;28;19925;-76
2022/09/28 02:42:01;;;;;;;;;;;8.80;99.90;;;;;;5048339;28;19928;-75
2022/09/28 02:44:35;;;;;;;;;;;8.90;99.90;;;;;;5054207;28;19929;-76
2022/09/28 02:47:05;;;;;;;;;;;8.80;99.90;;;;;;5067836;28;19975;-76
2022/09/28 02:49:43;;;;;;;;;;;8.80;99.90;;;;;;5072454;28;19951;-76
2022/09/28 02:52:16;;;;;;;;;;;8.90;99.90;;;;;;5057846;28;20003;-75
2022/09/28 02:54:53;;;;;;;;;;;8.90;99.90;;;;;;5048795;28;19928;-75
2022/09/28 02:57:27;;;;;;;;;;;8.90;99.90;;;;;;5048868;28;19924;-76
2022/09/28 02:59:59;;;;;;;;;;;9.00;99.90;;;;;;5047801;28;19928;-76
2022/09/28 03:02:28;;;;;;;;;;;9.00;99.90;;;;;;5047821;28;20032;-75
2022/09/28 03:05:04;;;;;;;;;;;9.00;99.90;;;;;;5047865;28;20017;-75
2022/09/28 03:07:35;;;;;;;;;;;9.10;99.90;;;;;;5039295;28;19929;-75
2022/09/28 03:10:05;;;;;;;;;;;9.10;99.90;;;;;;5047505;28;19940;-76
2022/09/28 03:12:32;;;;;;;;;;;9.10;99.90;;;;;;5048337;28;19929;-76
2022/09/28 03:15:06;;;;;;;;;;;9.10;99.90;;;;;;5049203;28;19928;-74
2022/09/28 03:17:33;;;;;;;;;;;9.10;99.90;;;;;;5049059;28;19982;-74
2022/09/28 03:19:59;;;;;;;;;;;9.10;99.90;;;;;;5067696;28;19925;-74
2022/09/28 03:22:28;;;;;;;;;;;9.10;99.90;;;;;;5060957;28;20306;-76
2022/09/28 03:24:54;;;;;;;;;;;9.10;99.90;;;;;;5049120;28;19932;-75
2022/09/28 03:27:21;;;;;;;;;;;9.10;99.90;;;;;;5030483;28;19932;-74
2022/09/28 03:29:48;;;;;;;;;;;9.10;99.90;;;;;;5047408;28;20467;-75
2022/09/28 03:32:15;;;;;;;;;;;9.10;99.90;;;;;;5049513;28;19972;-74
2022/09/28 03:34:42;;;;;;;;;;;9.10;99.90;;;;;;5049314;28;20019;-77
2022/09/28 03:37:09;;;;;;;;;;;9.00;99.90;;;;;;5047980;28;19951;-74
2022/09/28 03:39:37;;;;;;;;;;;9.00;99.90;;;;;;5048221;28;19924;-74
2022/09/28 03:42:04;;;;;;;;;;;9.00;99.90;;;;;;5065145;28;19936;-73
2022/09/28 03:44:34;;;;;;;;;;;9.00;99.90;;;;;;5067613;28;20005;-75
2022/09/28 03:47:01;;;;;;;;;;;9.00;99.90;;;;;;5067662;28;20470;-74
2022/09/28 03:49:27;;;;;;;;;;;9.00;99.90;;;;;;5068600;28;19924;-74
2022/09/28 03:51:54;;;;;;;;;;;9.00;99.90;;;;;;5065087;28;20488;-76
2022/09/28 03:54:21;;;;;;;;;;;9.00;99.90;;;;;;5047694;28;19924;-74
2022/09/28 03:56:49;;;;;;;;;;;9.00;99.90;;;;;;5047489;28;19925;-78
2022/09/28 03:59:16;;;;;;;;;;;9.00;99.90;;;;;;5047133;28;19936;-78
2022/09/28 04:01:44;;;;;;;;;;;9.00;99.90;;;;;;5047589;28;20390;-75
2022/09/28 04:04:11;;;;;;;;;;;9.00;99.90;;;;;;5048733;28;19932;-74
2022/09/28 04:06:38;;;;;;;;;;;9.00;99.90;;;;;;5044088;28;19925;-77
2022/09/28 04:09:05;;;;;;;;;;;9.00;99.90;;;;;;5048665;28;19936;-76
2022/09/28 04:11:31;;;;;;;;;;;9.10;99.90;;;;;;5063924;28;19936;-74
2022/09/28 04:14:00;;;;;;;;;;;9.10;99.90;;;;;;5067217;28;19932;-77
2022/09/28 04:16:28;;;;;;;;;;;9.10;99.90;;;;;;5054801;28;19924;-74
2022/09/28 04:19:03;;;;;;;;;;;9.20;99.90;;;;;;5047024;28;19928;-74
2022/09/28 04:21:49;;;;;;;;;;;9.10;99.90;;;;;;5040587;28;19959;-74
2022/09/28 04:24:17;;;;;;;;;;;9.10;99.90;;;;;;5046622;28;19935;-76
2022/09/28 04:26:43;;;;;;;;;;;9.10;99.90;;;;;;5042570;28;19929;-73
2022/09/28 04:29:15;;;;;;;;;;;9.10;99.90;;;;;;5044494;28;20009;-73
2022/09/28 04:31:46;;;;;;;;;;;9.20;99.90;;;;;;5053552;28;20019;-72
2022/09/28 04:34:16;;;;;;;;;;;9.20;99.90;;;;;;5059553;28;19939;-72
2022/09/28 04:36:43;;;;;;;;;;;9.20;99.90;;;;;;5050913;28;19931;-72
2022/09/28 04:39:10;;;;;;;;;;;9.10;99.90;;;;;;5066560;28;19963;-73
2022/09/28 04:41:37;;;;;;;;;;;9.10;99.90;;;;;;5067231;28;19985;-72
2022/09/28 04:44:04;;;;;;;;;;;9.20;99.90;;;;;;5053271;28;19933;-72
2022/09/28 04:46:32;;;;;;;;;;;9.70;99.90;;;;;;5052467;28;19936;-72
2022/09/28 04:49:23;;;;;;;;;;;9.20;99.90;;;;;;5049290;28;20004;-72
2022/09/28 04:51:54;;;;;;;;;;;9.20;99.90;;;;;;5045736;28;19929;-72
2022/09/28 04:54:20;;;;;;;;;;;9.10;99.90;;;;;;5046878;28;19929;-73
2022/09/28 04:56:47;;;;;;;;;;;9.20;99.90;;;;;;5046340;28;20061;-73
2022/09/28 04:59:14;;;;;;;;;;;9.10;99.90;;;;;;5046422;28;19929;-73
2022/09/28 05:01:43;;;;;;;;;;;9.20;99.90;;;;;;5046134;28;19929;-72
2022/09/28 05:04:29;;;;;;;;;;;9.10;99.90;;;;;;5038918;28;19936;-73
2022/09/28 05:07:16;;;;;;;;;;;9.20;99.90;;;;;;5007132;28;20031;-72
2022/09/28 05:09:43;;;;;;;;;;;9.10;99.90;;;;;;5051534;28;19925;-72
2022/09/28 05:12:10;;;;;;;;;;;9.20;99.90;;;;;;5065968;28;20149;-72
2022/09/28 05:14:37;;;;;;;;;;;9.20;99.90;;;;;;5066581;28;19924;-73
2022/09/28 05:17:06;;;;;;;;;;;9.20;99.90;;;;;;5050106;28;20059;-72
2022/09/28 05:19:47;;;;;;;;;;;9.20;99.90;;;;;;5044960;28;20246;-73
2022/09/28 05:22:15;;;;;;;;;;;9.20;99.90;;;;;;5049872;28;19940;-73
2022/09/28 05:24:46;;;;;;;;;;;9.30;99.90;;;;;;5045916;28;19933;-73
2022/09/28 05:27:13;;;;;;;;;;;9.30;99.90;;;;;;5054388;28;19932;-73
2022/09/28 05:29:41;;;;;;;;;;;9.30;99.90;;;;;;5041574;28;19928;-72
2022/09/28 05:32:42;;;;;;;;;;;9.30;99.90;;;;;;5044985;28;20259;-74
2022/09/28 05:35:39;;;;;;;;;;;9.30;99.90;;;;;;5043909;28;20075;-74
2022/09/28 05:38:05;;;;;;;;;;;9.40;99.90;;;;;;5046826;28;20260;-74
2022/09/28 05:40:33;;;;;;;;;;;9.40;99.90;;;;;;5045122;28;19941;-74
2022/09/28 05:43:00;;;;;;;;;;;9.40;99.90;;;;;;5046208;28;19991;-75
2022/09/28 05:45:27;;;;;;;;;;;9.40;99.90;;;;;;5047129;28;19925;-74
2022/09/28 05:47:56;;;;;;;;;;;9.50;99.90;;;;;;5051825;28;19994;-75
2022/09/28 05:50:23;;;;;;;;;;;9.50;99.90;;;;;;5049791;28;19935;-74
2022/09/28 05:52:57;;;;;;;;;;;9.50;99.90;;;;;;5047801;28;20325;-76
2022/09/28 05:55:24;;;;;;;;;;;9.50;99.90;;;;;;5049177;28;20039;-75
2022/09/28 05:57:50;;;;;;;;;;;9.50;99.90;;;;;;5050112;28;20125;-74
2022/09/28 06:00:17;;;;;;;;;;;9.50;99.90;;;;;;5050394;28;19928;-74
2022/09/28 06:03:00;;;;;;;;;;;9.60;99.90;;;;;;5049082;28;20313;-74
2022/09/28 06:05:28;;;;;;;;;;;9.60;99.90;;;;;;5049845;28;19935;-74
2022/09/28 06:07:55;;;;;;;;;;;9.60;99.90;;;;;;5048974;28;19982;-76
2022/09/28 06:10:22;;;;;;;;;;;9.60;99.90;;;;;;5049169;28;19925;-74
2022/09/28 06:12:51;;;;;;;;;;;9.70;99.90;;;;;;5042023;28;19964;-75
2022/09/28 06:15:20;;;;;;;;;;;9.70;99.90;;;;;;5049036;28;19933;-74
2022/09/28 06:17:47;;;;;;;;;;;9.80;99.90;;;;;;5048971;28;19924;-75
2022/09/28 06:20:36;;;;;;;;;;;9.90;99.90;;;;;;5050287;28;19925;-74
2022/09/28 06:23:09;;;;;;;;;;;9.90;99.90;;;;;;5050781;28;19929;-77
2022/09/28 06:25:36;;;;;;;;;;;9.90;99.90;;;;;;5051772;28;19960;-74
2022/09/28 06:28:04;;;;;;;;;;;10.00;99.90;;;;;;5049344;28;19936;-77
2022/09/28 06:30:32;;;;;;;;;;;10.00;99.90;;;;;;5052720;28;19924;-76
2022/09/28 06:33:00;;;;;;;;;;;10.10;99.90;;;;;;5042217;28;19944;-76
2022/09/28 06:35:27;;;;;;;;;;;10.20;99.90;;;;;;5058664;28;20400;-74
2022/09/28 06:37:56;;;;;;;;;;;10.20;99.90;;;;;;5058973;28;19924;-74
2022/09/28 06:40:23;;;;;;;;;;;10.20;99.90;;;;;;5072012;28;20296;-75
2022/09/28 06:42:57;;;;;;;;;;;10.10;99.90;;;;;;5071250;28;19928;-75
2022/09/28 06:45:44;;;;;;;;;;;10.10;99.90;;;;;;5058894;28;19936;-76
2022/09/28 06:48:23;;;;;;;;;;;10.20;99.90;;;;;;5045444;28;20322;-74
2022/09/28 06:50:50;;;;;;;;;;;10.20;99.90;;;;;;5047484;28;19928;-76
2022/09/28 06:53:45;;;;;;;;;;;10.20;99.90;;;;;;5024946;28;19931;-73
2022/09/28 06:56:30;;;;;;;;;;;10.30;99.90;;;;;;5050110;28;19939;-74
2022/09/28 06:58:57;;;;;;;;;;;10.40;99.90;;;;;;5048320;28;19939;-75
2022/09/28 07:01:24;;;;;;;;;;;10.40;99.90;;;;;;5051026;28;20306;-75
2022/09/28 07:04:09;;;;;;;;;;;10.40;99.90;;;;;;5051736;28;19932;-74
2022/09/28 07:06:55;;;;;;;;;;;10.50;99.90;;;;;;5049825;28;20426;-75
2022/09/28 07:09:42;;;;;;;;;;;10.50;99.90;;;;;;5056720;28;19951;-74
2022/09/28 07:12:40;;;;;;;;;;;10.40;99.90;;;;;;5039175;28;20358;-75
2022/09/28 07:15:42;;;;;;;;;;;10.30;99.90;;;;;;5039863;28;19935;-75
2022/09/28 07:18:12;;;;;;;;;;;10.30;99.90;;;;;;5048379;28;19928;-74
2022/09/28 07:20:41;;;;;;;;;;;10.30;99.90;;;;;;5051515;28;20317;-75
2022/09/28 07:23:08;;;;;;;;;;;10.20;99.90;;;;;;5050066;28;20460;-75
2022/09/28 07:25:57;;;;;;;;;;;10.20;99.90;;;;;;5056456;28;19940;-74
2022/09/28 07:28:32;;;;;;;;;;;10.20;99.90;;;;;;5067853;28;20472;-75
2022/09/28 07:31:28;;;;;;;;;;;10.30;99.90;;;;;;5058574;28;19929;-75
2022/09/28 07:34:11;;;;;;;;;;;10.40;99.90;;;;;;5045728;28;19924;-76
2022/09/28 07:37:08;;;;;;;;;;;10.40;99.90;;;;;;5043048;28;20336;-74
2022/09/28 07:41:10;;;;;;;;;;;10.50;99.90;;;;;;5048703;28;19929;-75
2022/09/28 07:42:23;;;;;;;;;;;10.70;99.90;;;;;;5050609;28;19964;-74
2022/09/28 07:44:49;;;;;;;;;;;10.80;99.90;;;;;;5051778;28;20031;-74
2022/09/28 07:47:17;;;;;;;;;;;11.00;99.90;;;;;;5044606;28;19940;-75
2022/09/28 07:50:03;;;;;;;;;;;11.10;99.90;;;;;;5050697;28;20361;-76
2022/09/28 07:52:52;;;;;;;;;;;11.20;99.90;;;;;;5050169;28;19925;-75
2022/09/28 07:55:30;;;;;;;;;;;11.50;99.90;;;;;;5040180;28;20313;-75
2022/09/28 07:58:07;;;;;;;;;;;12.00;99.90;;;;;;5046679;28;19932;-75
2022/09/28 08:00:46;;;;;;;;;;;12.00;99.90;;;;;;5048540;28;19944;-74
2022/09/28 08:03:14;;;;;;;;;;;12.20;99.90;;;;;;5054868;28;19967;-75
2022/09/28 08:05:41;;;;;;;;;;;12.20;99.90;;;;;;5041146;28;20047;-77
2022/09/28 08:08:08;;;;;;;;;;;12.40;99.90;;;;;;5045464;28;20385;-75
2022/09/28 08:10:36;;;;;;;;;;;12.40;99.90;;;;;;5046735;28;20027;-74
2022/09/28 08:13:17;;;;;;;;;;;12.40;99.90;;;;;;5046964;28;20011;-74
2022/09/28 08:16:12;;;;;;;;;;;12.50;99.90;;;;;;5051020;28;19932;-74
2022/09/28 08:19:08;;;;;;;;;;;12.40;99.90;;;;;;5046611;28;20027;-74
2022/09/28 08:21:46;;;;;;;;;;;12.40;99.90;;;;;;5046914;28;19928;-78
2022/09/28 08:24:14;;;;;;;;;;;12.30;99.90;;;;;;5044767;28;20358;-74
2022/09/28 08:26:42;;;;;;;;;;;12.30;99.90;;;;;;5046149;28;20404;-77
2022/09/28 08:29:11;;;;;;;;;;;12.20;99.90;;;;;;5046635;28;20354;-73
2022/09/28 08:31:58;;;;;;;;;;;12.00;99.90;;;;;;5045067;28;20046;-72
2022/09/28 08:34:51;;;;;;;;;;;12.10;99.90;;;;;;5024297;28;20015;-73
2022/09/28 08:37:31;;;;;;;;;;;12.20;99.90;;;;;;5046669;28;19931;-72
2022/09/28 08:40:24;;;;;;;;;;;14.10;99.90;;;;;;5064479;28;20014;-72
2022/09/28 08:43:11;;;;;;;;;;;12.30;99.90;;;;;;5050353;28;19989;-72
2022/09/28 08:46:00;;;;;;;;;;;12.60;99.90;;;;;;5041298;28;19940;-72
2022/09/28 08:48:43;;;;;;;;;;;12.90;99.90;;;;;;5055992;28;19929;-71
2022/09/28 08:51:34;;;;;;;;;;;13.20;99.90;;;;;;5048219;28;19936;-71
2022/09/28 08:54:26;;;;;;;;;;;13.40;99.90;;;;;;5047173;28;19940;-70
2022/09/28 08:56:57;;;;;;;;;;;13.70;99.90;;;;;;5049469;28;19924;-70
2022/09/28 08:59:25;;;;;;;;;;;14.00;99.90;;;;;;5047850;28;20325;-70
2022/09/28 09:02:02;;;;;;;;;;;14.50;99.90;;;;;;5049477;28;20044;-71
2022/09/28 09:04:29;;;;;;;;;;;14.70;99.90;;;;;;5047224;28;19935;-70
2022/09/28 09:07:17;;;;;;;;;;;14.70;99.90;;;;;;5048517;28;19932;-71
2022/09/28 09:09:57;;;;;;;;;;;14.50;99.90;;;;;;5048082;28;19928;-71
2022/09/28 09:12:29;;;;;;;;;;;14.30;99.90;;;;;;5059843;28;20397;-70
2022/09/28 09:15:05;;;;;;;;;;;14.10;99.90;;;;;;5065483;28;19946;-70
2022/09/28 09:17:39;;;;;;;;;;;14.40;99.90;;;;;;5050234;28;20032;-71
2022/09/28 09:20:25;;;;;;;;;;;14.40;99.90;;;;;;5054713;28;20352;-70
2022/09/28 09:23:01;;;;;;;;;;;14.50;99.90;;;;;;5050677;28;19933;-70
2022/09/28 09:25:30;;;;;;;;;;;14.50;99.90;;;;;;5052833;28;19931;-71
2022/09/28 09:28:11;;;;;;;;;;;14.40;99.90;;;;;;5049804;28;19925;-70
2022/09/28 09:30:42;;;;;;;;;;;14.30;99.90;;;;;;5042392;28;20370;-73
2022/09/28 09:33:27;;;;;;;;;;;14.20;99.90;;;;;;5050601;28;19929;-70
2022/09/28 09:36:23;;;;;;;;;;;14.10;99.90;;;;;;5047091;28;19925;-71
2022/09/28 09:39:24;;;;;;;;;;;14.00;99.90;;;;;;5053245;28;19936;-71
2022/09/28 09:42:27;;;;;;;;;;;13.90;99.90;;;;;;5036857;28;19996;-71
2022/09/28 09:45:24;;;;;;;;;;;13.90;99.90;;;;;;5049606;28;20285;-70
2022/09/28 09:48:10;;;;;;;;;;;14.00;99.90;;;;;;5051072;28;20382;-71
2022/09/28 09:50:42;;;;;;;;;;;14.10;99.90;;;;;;5057939;28;19925;-70
2022/09/28 09:53:15;;;;;;;;;;;14.40;99.90;;;;;;5051041;28;20036;-71
2022/09/28 09:55:43;;;;;;;;;;;14.50;99.90;;;;;;5045069;28;20081;-72
2022/09/28 09:58:35;;;;;;;;;;;14.60;99.90;;;;;;5049426;28;20021;-72
2022/09/28 10:01:16;;;;;;;;;;;14.60;99.90;;;;;;5047780;28;19979;-73
2022/09/28 10:04:05;;;;;;;;;;;14.70;99.90;;;;;;5049048;28;19937;-72
2022/09/28 10:06:34;;;;;;;;;;;14.70;99.90;;;;;;5042998;28;19928;-69
2022/09/28 10:09:03;;;;;;;;;;;14.60;99.90;;;;;;5049011;28;20408;-72
2022/09/28 10:11:34;;;;;;;;;;;14.40;99.90;;;;;;5054895;28;20405;-69
2022/09/28 10:14:01;;;;;;;;;;;14.30;99.90;;;;;;5056185;28;20429;-70
2022/09/28 10:16:37;;;;;;;;;;;14.40;99.90;;;;;;5052595;28;19928;-70
2022/09/28 10:19:10;;;;;;;;;;;14.30;99.90;;;;;;5053843;28;20051;-72
2022/09/28 10:21:58;;;;;;;;;;;14.30;99.90;;;;;;5054533;28;19990;-72
2022/09/28 10:24:30;;;;;;;;;;;14.10;99.90;;;;;;5054352;28;20036;-72
2022/09/28 10:26:59;;;;;;;;;;;14.00;99.90;;;;;;5053402;28;19931;-72
2022/09/28 10:29:26;;;;;;;;;;;14.00;99.90;;;;;;5051929;28;19935;-72
2022/09/28 10:31:54;;;;;;;;;;;14.10;99.90;;;;;;5052949;28;19960;-72
2022/09/28 10:34:41;;;;;;;;;;;14.20;99.90;;;;;;5052552;28;19928;-72
2022/09/28 10:37:17;;;;;;;;;;;14.40;99.90;;;;;;5049461;28;20343;-72
2022/09/28 10:39:57;;;;;;;;;;;14.60;99.90;;;;;;5064606;28;20180;-72
2022/09/28 10:42:27;;;;;;;;;;;14.80;99.90;;;;;;5047660;28;20160;-71
2022/09/28 10:44:55;;;;;;;;;;;14.70;99.90;;;;;;5049844;28;20503;-70
2022/09/28 10:47:35;;;;;;;;;;;14.50;99.90;;;;;;5050686;28;19928;-71
2022/09/28 10:50:03;;;;;;;;;;;15.00;99.90;;;;;;5054215;28;19929;-72
2022/09/28 10:52:33;;;;;;;;;;;15.50;99.90;;;;;;5054251;28;20441;-72
2022/09/28 10:55:01;;;;;;;;;;;15.90;99.90;;;;;;5051560;28;19932;-74
2022/09/28 10:57:28;;;;;;;;;;;16.10;99.90;;;;;;5050706;28;20209;-71
2022/09/28 11:00:05;;;;;;;;;;;16.10;99.90;;;;;;5042301;28;19936;-70
2022/09/28 11:02:46;;;;;;;;;;;15.90;99.90;;;;;;5045929;28;19983;-70
2022/09/28 11:05:21;;;;;;;;;;;15.70;99.90;;;;;;5044976;28;19950;-69
2022/09/28 11:07:51;;;;;;;;;;;15.30;99.90;;;;;;5047332;28;19929;-69
2022/09/28 11:10:23;;;;;;;;;;;15.20;99.90;;;;;;5049497;28;19954;-69
2022/09/28 11:12:52;;;;;;;;;;;15.10;99.90;;;;;;5044149;28;19924;-70
2022/09/28 11:17:54;;;;;;;;;;;14.80;99.90;;;;;;5072638;28;19928;-73
2022/09/28 11:20:34;;;;;;;;;;;14.70;99.90;;;;;;5052452;28;20323;-73
2022/09/28 11:23:17;;;;;;;;;;;14.70;99.90;;;;;;5055410;28;20037;-73
2022/09/28 11:25:55;;;;;;;;;;;14.80;99.90;;;;;;5053644;28;19928;-73
2022/09/28 11:28:23;;;;;;;;;;;15.10;99.90;;;;;;5049783;28;20228;-73
2022/09/28 11:30:52;;;;;;;;;;;15.10;99.90;;;;;;5054786;28;19925;-73
2022/09/28 11:33:25;;;;;;;;;;;15.20;99.90;;;;;;5056585;28;20412;-73
2022/09/28 11:36:22;;;;;;;;;;;15.50;99.90;;;;;;5066724;28;19939;-73
2022/09/28 11:38:55;;;;;;;;;;;15.50;99.90;;;;;;5063075;28;20161;-73
2022/09/28 11:41:46;;;;;;;;;;;15.60;99.90;;;;;;5060961;28;20364;-73
2022/09/28 11:44:18;;;;;;;;;;;15.70;99.90;;;;;;5066561;28;20344;-73
2022/09/28 11:46:50;;;;;;;;;;;15.70;99.90;;;;;;5045273;28;20313;-73
2022/09/28 11:49:25;;;;;;;;;;;15.70;99.90;;;;;;5047821;28;20025;-73
2022/09/28 11:51:53;;;;;;;;;;;15.70;99.90;;;;;;5056800;28;19986;-73
2022/09/28 11:54:25;;;;;;;;;;;15.90;99.90;;;;;;5062150;28;19925;-73
2022/09/28 11:56:52;;;;;;;;;;;15.90;99.90;;;;;;5044809;28;19925;-73
2022/09/28 11:59:22;;;;;;;;;;;15.90;99.90;;;;;;5052324;28;19938;-73
2022/09/28 12:01:52;;;;;;;;;;;16.00;99.90;;;;;;5042806;28;19924;-75
2022/09/28 12:04:43;;;;;;;;;;;16.00;99.90;;;;;;5053364;28;20013;-74
2022/09/28 12:07:15;;;;;;;;;;;16.00;99.90;;;;;;5053839;28;19956;-76
2022/09/28 12:09:49;;;;;;;;;;;16.10;99.90;;;;;;5061393;28;19949;-76
2022/09/28 12:12:24;;;;;;;;;;;16.00;99.90;;;;;;5071192;28;20395;-76
2022/09/28 12:14:56;;;;;;;;;;;16.00;99.90;;;;;;5073775;28;19925;-77
2022/09/28 12:17:26;;;;;;;;;;;16.00;99.90;;;;;;5567174;22;20455;-76
2022/09/28 12:19:55;;;;;;;;;;;16.00;99.90;;;;;;5068076;28;19935;-76
2022/09/28 12:22:25;;;;;;;;;;;16.00;99.90;;;;;;5066759;28;20343;-76
2022/09/28 12:24:55;;;;;;;;;;;15.80;99.90;;;;;;5068647;28;20010;-76
2022/09/28 12:27:26;;;;;;;;;;;16.10;99.90;;;;;;5068453;28;20300;-76
2022/09/28 12:29:56;;;;;;;;;;;16.20;99.90;;;;;;5048062;28;19959;-76
2022/09/28 12:32:27;;;;;;;;;;;16.50;99.90;;;;;;5106329;22;19927;-75
2022/09/28 12:34:54;;;;;;;;;;;16.60;99.90;;;;;;5102553;28;20407;-76
2022/09/28 12:37:31;;;;;;;;;;;16.80;99.90;;;;;;5107814;28;19928;-75
2022/09/28 12:40:16;;;;;;;;;;;16.90;99.90;;;;;;5108066;28;19934;-74
2022/09/28 12:42:55;;;;;;;;;;;17.00;99.90;;;;;;5087648;28;20014;-75
2022/09/28 12:45:28;;;;;;;;;;;17.20;99.90;;;;;;5086269;28;19928;-74
2022/09/28 12:48:03;;;;;;;;;;;17.30;99.90;;;;;;5082005;28;19928;-74
2022/09/28 12:50:33;;;;;;;;;;;17.20;99.90;;;;;;5075360;28;19937;-73
2022/09/28 12:53:07;;;;;;;;;;;17.20;99.90;;;;;;5081707;28;19928;-74
2022/09/28 12:55:39;;;;;;;;;;;17.30;99.90;;;;;;5080602;28;19934;-74
2022/09/28 12:58:15;;;;;;;;;;;17.30;99.90;;;;;;5061764;28;19928;-75
2022/09/28 13:03:48;;;;;;;;;;;17.40;99.90;;;;;;5196910;22;20060;-76
2022/09/28 13:06:33;;;;;;;;;;;17.50;99.90;;;;;;5069412;28;19928;-76
2022/09/28 13:09:09;;;;;;;;;;;17.50;99.90;;;;;;5064095;28;20305;-75
2022/09/28 13:11:39;;;;;;;;;;;17.60;99.90;;;;;;5056933;28;19935;-75
2022/09/28 13:14:14;;;;;;;;;;;17.60;99.90;;;;;;5071598;28;20027;-74
2022/09/28 13:16:43;;;;;;;;;;;17.60;99.90;;;;;;5089478;22;19954;-77
2022/09/28 13:19:15;;;;;;;;;;;17.50;99.90;;;;;;5072955;28;19925;-77
2022/09/28 13:21:45;;;;;;;;;;;17.50;99.90;;;;;;5091589;28;19935;-77
2022/09/28 13:24:23;;;;;;;;;;;17.40;99.90;;;;;;5078252;28;19936;-77
2022/09/28 13:26:52;;;;;;;;;;;17.20;99.90;;;;;;5092409;28;19924;-78
2022/09/28 13:29:21;;;;;;;;;;;17.00;99.90;;;;;;5062854;28;20051;-77
2022/09/28 13:31:49;;;;;;;;;;;17.00;99.90;;;;;;5069002;28;19947;-76
2022/09/28 13:34:19;;;;;;;;;;;16.50;99.90;;;;;;5038511;28;19925;-75
2022/09/28 13:36:46;;;;;;;;;;;16.40;99.90;;;;;;5076982;28;19976;-78
2022/09/28 13:39:32;;;;;;;;;;;16.10;99.90;;;;;;5068114;28;19928;-76
2022/09/28 13:41:59;;;;;;;;;;;15.80;99.90;;;;;;5045712;28;20019;-76
2022/09/28 13:44:37;;;;;;;;;;;15.20;99.90;;;;;;5062757;28;19947;-78
2022/09/28 13:47:13;;;;;;;;;;;14.80;99.90;;;;;;5070496;28;20301;-79
2022/09/28 13:49:46;;;;;;;;;;;14.60;99.90;;;;;;5079927;28;20338;-78
2022/09/28 13:52:14;;;;;;;;;;;16.20;99.90;;;;;;5073174;28;19929;-75
2022/09/28 13:54:50;;;;;;;;;;;14.70;99.90;;;;;;5084941;28;19935;-76
2022/09/28 13:57:18;;;;;;;;;;;14.70;99.90;;;;;;5075734;28;20427;-76
2022/09/28 13:59:52;;;;;;;;;;;14.90;99.90;;;;;;5061220;28;19939;-76
2022/09/28 14:02:25;;;;;;;;;;;14.70;99.90;;;;;;5034106;28;19932;-75
2022/09/28 14:04:52;;;;;;;;;;;15.10;99.90;;;;;;5055307;28;19936;-77
2022/09/28 14:07:21;;;;;;;;;;;14.50;99.90;;;;;;5057347;28;19932;-78
2022/09/28 14:09:48;;;;;;;;;;;14.60;99.90;;;;;;5055907;28;19928;-76
2022/09/28 14:12:30;;;;;;;;;;;14.70;99.90;;;;;;5056485;28;19940;-77
2022/09/28 14:14:59;;;;;;;;;;;14.70;99.90;;;;;;5057710;28;20400;-78
2022/09/28 14:17:53;;;;;;;;;;;14.70;99.90;;;;;;5056478;28;19932;-77
2022/09/28 14:20:24;;;;;;;;;;;14.60;99.90;;;;;;5057412;28;20525;-77
2022/09/28 14:22:59;;;;;;;;;;;14.50;99.90;;;;;;5054830;28;20438;-77
2022/09/28 14:25:27;;;;;;;;;;;15.10;99.90;;;;;;5034941;28;19960;-77
2022/09/28 14:28:02;;;;;;;;;;;14.10;99.90;;;;;;5053957;28;19932;-76
2022/09/28 14:30:44;;;;;;;;;;;14.00;99.90;;;;;;5055571;28;19940;-76
2022/09/28 14:33:16;;;;;;;;;;;13.80;99.90;;;;;;5055352;28;19973;-76
2022/09/28 14:35:44;;;;;;;;;;;13.60;99.90;;;;;;5056650;28;19928;-79
2022/09/28 14:41:11;;;;;;;;;;;13.10;99.90;;;;;;5055592;28;20103;-77
2022/09/28 14:44:05;;;;;;;;;;;13.20;99.90;;;;;;5055754;28;20040;-77
2022/09/28 14:46:34;;;;;;;;;;;12.50;99.90;;;;;;5020875;28;19962;-78
2022/09/28 14:49:02;;;;;;;;;;;12.50;99.90;;;;;;5067597;28;19925;-74
2022/09/28 14:52:03;;;;;;;;;;;12.50;99.90;;;;;;5042498;28;19987;-75
2022/09/28 14:54:38;;;;;;;;;;;12.40;99.90;;;;;;5003907;28;19992;-76
2022/09/28 14:57:08;;;;;;;;;;;12.20;99.90;;;;;;5057342;28;19982;-75
2022/09/28 14:59:41;;;;;;;;;;;12.10;99.90;;;;;;5065418;28;20381;-75
2022/09/28 15:02:14;;;;;;;;;;;12.00;99.90;;;;;;5068950;28;19932;-78
2022/09/28 15:04:43;;;;;;;;;;;11.70;99.90;;;;;;5046440;28;19979;-75
2022/09/28 15:07:18;;;;;;;;;;;11.70;99.90;;;;;;5067975;28;19959;-77